Foggia / Gino Lisa Airport LIBF

Flugplatz Daten

Name: Foggia / Gino Lisa Airport

Ident: LIBF

Lat: 41,43289948

Long: 15,53499985

Platzhöhe: 265 ft

IataCode: FOG

City: Foggia

Metar

2022/08/13 15:50
LIBF 131550Z 27009KT 9999 SCT030 20/19 Q1011

Taf

2022/08/13 12:00
TAF LIBF 131100Z 1312/1412 32012KT 9999 SCT025
TEMPO 1314/1318 4000 TSRA
Gewünschte Webcam nicht vorhanden? Dann fügen Sie eine hinzu. Sie wird dann so schnell wie möglich freigeschaltet
Url: Title: